createdAt,value
2017-07-17T00:00:20.978Z,18.9
2017-07-17T00:01:23.029Z,18.9
2017-07-17T00:02:25.087Z,18.9
2017-07-17T00:03:27.138Z,18.9
2017-07-17T00:04:29.204Z,18.9
2017-07-17T00:05:31.261Z,18.9
2017-07-17T00:06:33.317Z,18.8
2017-07-17T00:07:35.373Z,18.8
2017-07-17T00:08:37.433Z,18.8
2017-07-17T00:09:39.483Z,18.8
2017-07-17T00:10:41.543Z,18.8
2017-07-17T00:11:43.968Z,18.7
2017-07-17T00:12:46.021Z,18.7
2017-07-17T00:13:48.072Z,18.7
2017-07-17T00:14:50.134Z,18.7
2017-07-17T00:15:52.193Z,18.7
2017-07-17T00:16:54.240Z,18.7
2017-07-17T00:17:56.299Z,18.6
2017-07-17T00:18:58.362Z,18.6
2017-07-17T00:20:00.412Z,18.6
2017-07-17T00:21:02.475Z,18.6
2017-07-17T00:22:04.526Z,18.6
2017-07-17T00:23:06.576Z,18.6
2017-07-17T00:24:08.637Z,18.6
2017-07-17T00:25:10.685Z,18.6
2017-07-17T00:26:12.749Z,18.6
2017-07-17T00:27:14.803Z,18.5
2017-07-17T00:28:17.205Z,18.5
2017-07-17T00:29:19.258Z,18.5
2017-07-17T00:30:21.318Z,18.4
2017-07-17T00:31:23.373Z,18.4
2017-07-17T00:32:25.433Z,18.4
2017-07-17T00:33:27.482Z,18.4
2017-07-17T00:34:29.895Z,18.4
2017-07-17T00:35:31.940Z,18.4
2017-07-17T00:36:34.406Z,18.3
2017-07-17T00:37:36.510Z,18.3
2017-07-17T00:38:38.571Z,18.3
2017-07-17T00:39:40.630Z,18.3
2017-07-17T00:40:42.675Z,18.3
2017-07-17T00:41:44.731Z,18.3
2017-07-17T00:42:46.801Z,18.2
2017-07-17T00:43:48.847Z,18.2
2017-07-17T00:44:50.902Z,18.2
2017-07-17T00:45:52.959Z,18.2
2017-07-17T00:46:55.010Z,18.2
2017-07-17T00:47:57.065Z,18.2
2017-07-17T00:48:59.114Z,18.1
2017-07-17T00:50:01.179Z,18.1
2017-07-17T00:51:03.231Z,18.1
2017-07-17T00:52:05.275Z,18
2017-07-17T00:53:07.334Z,18
2017-07-17T00:54:09.381Z,18
2017-07-17T00:55:11.431Z,18
2017-07-17T00:56:13.486Z,18
2017-07-17T00:57:15.544Z,17.9
2017-07-17T00:58:17.601Z,18
2017-07-17T00:59:19.645Z,17.9
2017-07-17T01:00:21.702Z,17.9
2017-07-17T01:01:23.764Z,17.9
2017-07-17T01:02:25.842Z,17.9
2017-07-17T01:03:27.870Z,17.9
2017-07-17T01:04:29.922Z,17.9
2017-07-17T01:05:31.975Z,17.9
2017-07-17T01:06:34.028Z,17.9
2017-07-17T01:07:36.074Z,17.9
2017-07-17T01:08:38.145Z,17.9
2017-07-17T01:09:40.194Z,17.9
2017-07-17T01:10:42.239Z,17.9
2017-07-17T01:11:44.298Z,17.9
2017-07-17T01:12:46.355Z,17.9
2017-07-17T01:13:48.412Z,17.9
2017-07-17T01:14:50.470Z,17.9
2017-07-17T01:15:52.516Z,17.8
2017-07-17T01:16:54.574Z,17.8
2017-07-17T01:17:56.630Z,17.8
2017-07-17T01:18:58.684Z,17.8
2017-07-17T01:20:00.743Z,17.8
2017-07-17T01:21:03.133Z,17.8
2017-07-17T01:22:05.188Z,17.8
2017-07-17T01:23:07.239Z,17.8
2017-07-17T01:24:09.286Z,17.8
2017-07-17T01:25:11.350Z,17.8
2017-07-17T01:26:13.405Z,17.8
2017-07-17T01:27:15.454Z,17.7
2017-07-17T01:28:17.508Z,17.7
2017-07-17T01:29:19.562Z,17.7
2017-07-17T01:30:21.622Z,17.7
2017-07-17T01:31:23.673Z,17.7
2017-07-17T01:32:25.732Z,17.7
2017-07-17T01:33:27.793Z,17.6
2017-07-17T01:34:29.841Z,17.7
2017-07-17T01:35:31.900Z,17.6
2017-07-17T01:36:34.035Z,17.6
2017-07-17T01:37:36.501Z,17.6
2017-07-17T01:38:38.557Z,17.6
2017-07-17T01:39:40.606Z,17.6
2017-07-17T01:40:42.661Z,17.6
2017-07-17T01:41:44.711Z,17.6
2017-07-17T01:42:46.759Z,17.5
2017-07-17T01:43:48.828Z,17.5
2017-07-17T01:44:50.867Z,17.5
2017-07-17T01:45:52.920Z,17.5
2017-07-17T01:46:54.973Z,17.5
2017-07-17T01:47:57.020Z,17.5
2017-07-17T01:48:59.078Z,17.5
2017-07-17T01:50:01.127Z,17.5
2017-07-17T01:51:03.177Z,17.5
2017-07-17T01:52:05.231Z,17.4
2017-07-17T01:53:07.281Z,17.4
2017-07-17T01:54:09.337Z,17.4
2017-07-17T01:55:11.390Z,17.4
2017-07-17T01:56:13.437Z,17.4
2017-07-17T01:57:15.500Z,17.3
2017-07-17T01:58:17.904Z,17.4
2017-07-17T01:59:19.958Z,17.3
2017-07-17T02:00:22.016Z,17.3
2017-07-17T02:01:24.067Z,17.3
2017-07-17T02:02:26.131Z,17.2
2017-07-17T02:03:28.178Z,17.2
2017-07-17T02:04:30.233Z,17.2
2017-07-17T02:05:32.294Z,17.2
2017-07-17T02:06:34.346Z,17.1
2017-07-17T02:07:36.400Z,17.1
2017-07-17T02:08:38.456Z,17.1
2017-07-17T02:09:40.508Z,17.1
2017-07-17T02:10:42.561Z,17.1
2017-07-17T02:11:44.613Z,17.1
2017-07-17T02:12:46.669Z,17.1
2017-07-17T02:13:48.719Z,17.1
2017-07-17T02:14:50.768Z,17.1
2017-07-17T02:15:52.826Z,17
2017-07-17T02:16:54.873Z,17
2017-07-17T02:17:56.929Z,17
2017-07-17T02:18:58.984Z,17
2017-07-17T02:20:01.037Z,17
2017-07-17T02:21:03.434Z,16.9
2017-07-17T02:22:05.484Z,16.9
2017-07-17T02:23:07.534Z,16.9
2017-07-17T02:24:09.600Z,16.9
2017-07-17T02:25:11.653Z,16.9
2017-07-17T02:26:13.705Z,16.9
2017-07-17T02:27:15.761Z,16.8
2017-07-17T02:28:17.805Z,16.8
2017-07-17T02:29:19.866Z,16.8
2017-07-17T02:30:21.913Z,16.8
2017-07-17T02:31:23.956Z,16.8
2017-07-17T02:32:26.013Z,16.7
2017-07-17T02:33:28.061Z,16.7
2017-07-17T02:34:30.120Z,16.7
2017-07-17T02:35:32.186Z,16.7
2017-07-17T02:36:34.293Z,16.7
2017-07-17T02:37:36.414Z,16.6
2017-07-17T02:38:38.458Z,16.7
2017-07-17T02:39:40.515Z,16.7
2017-07-17T02:40:42.570Z,16.6
2017-07-17T02:41:44.623Z,16.6
2017-07-17T02:42:46.671Z,16.6
2017-07-17T02:43:48.726Z,16.6
2017-07-17T02:44:50.775Z,16.6
2017-07-17T02:45:52.836Z,16.6
2017-07-17T02:46:54.881Z,16.6
2017-07-17T02:47:56.942Z,16.6
2017-07-17T02:48:58.995Z,16.6
2017-07-17T02:50:01.038Z,16.6
2017-07-17T02:51:03.089Z,16.5
2017-07-17T02:52:05.139Z,16.5
2017-07-17T02:53:07.199Z,16.5
2017-07-17T02:54:09.262Z,16.5
2017-07-17T02:55:11.307Z,16.5
2017-07-17T02:56:13.369Z,16.5
2017-07-17T02:57:15.411Z,16.5
2017-07-17T02:58:17.503Z,16.5
2017-07-17T02:59:19.530Z,16.4
2017-07-17T03:00:21.585Z,16.4
2017-07-17T03:01:23.643Z,16.4
2017-07-17T03:02:25.694Z,16.4
2017-07-17T03:03:27.741Z,16.4
2017-07-17T03:04:29.804Z,16.4
2017-07-17T03:05:31.848Z,16.4
2017-07-17T03:06:33.914Z,16.3
2017-07-17T03:07:35.959Z,16.3
2017-07-17T03:08:38.020Z,16.3
2017-07-17T03:09:40.072Z,16.3
2017-07-17T03:10:42.128Z,16.3
2017-07-17T03:11:44.191Z,16.2
2017-07-17T03:12:46.243Z,16.2
2017-07-17T03:13:48.296Z,16.2
2017-07-17T03:14:50.353Z,16.2
2017-07-17T03:15:52.410Z,16.2
2017-07-17T03:16:54.461Z,16.2
2017-07-17T03:17:56.510Z,16.2
2017-07-17T03:18:58.570Z,16.2
2017-07-17T03:20:00.621Z,16.2
2017-07-17T03:21:02.668Z,16.2
2017-07-17T03:22:04.725Z,16.2
2017-07-17T03:23:06.774Z,16.1
2017-07-17T03:24:08.834Z,16.1
2017-07-17T03:25:10.888Z,16.1
2017-07-17T03:26:12.940Z,16.1
2017-07-17T03:27:15.002Z,16.1
2017-07-17T03:28:17.049Z,16.1
2017-07-17T03:29:19.104Z,16.1
2017-07-17T03:30:21.172Z,16.1
2017-07-17T03:31:23.223Z,16.1
2017-07-17T03:32:25.276Z,16.1
2017-07-17T03:33:27.331Z,16.1
2017-07-17T03:34:29.385Z,16.1
2017-07-17T03:35:31.441Z,16.1
2017-07-17T03:36:33.516Z,16
2017-07-17T03:37:35.635Z,16.1
2017-07-17T03:38:37.689Z,16.1
2017-07-17T03:39:39.739Z,16
2017-07-17T03:40:41.795Z,16
2017-07-17T03:41:43.855Z,16.1
2017-07-17T03:42:45.913Z,16
2017-07-17T03:43:47.969Z,16
2017-07-17T03:44:50.365Z,16
2017-07-17T03:45:52.426Z,16
2017-07-17T03:46:54.481Z,16
2017-07-17T03:47:56.539Z,16
2017-07-17T03:48:58.594Z,16
2017-07-17T03:50:00.644Z,16
2017-07-17T03:51:03.039Z,16
2017-07-17T03:52:05.106Z,16
2017-07-17T03:53:07.154Z,16
2017-07-17T03:54:09.218Z,16
2017-07-17T03:55:11.268Z,16
2017-07-17T03:56:13.325Z,16
2017-07-17T03:57:15.375Z,16
2017-07-17T03:58:17.425Z,16
2017-07-17T03:59:19.490Z,16
2017-07-17T04:00:21.546Z,16
2017-07-17T04:01:23.590Z,16
2017-07-17T04:02:25.654Z,16
2017-07-17T04:03:27.697Z,16
2017-07-17T04:04:29.758Z,16.1
2017-07-17T04:05:31.819Z,16
2017-07-17T04:06:33.874Z,16.1
2017-07-17T04:07:35.936Z,16.1
2017-07-17T04:08:37.987Z,16.1
2017-07-17T04:09:40.038Z,16.1
2017-07-17T04:10:42.108Z,16.1
2017-07-17T04:11:44.154Z,16.1
2017-07-17T04:12:46.219Z,16.2
2017-07-17T04:13:48.274Z,16.1
2017-07-17T04:14:50.330Z,16.2
2017-07-17T04:15:52.381Z,16.2
2017-07-17T04:16:54.431Z,16.2
2017-07-17T04:17:56.499Z,16.2
2017-07-17T04:18:58.551Z,16.2
2017-07-17T04:20:00.597Z,16.2
2017-07-17T04:21:02.656Z,16.3
2017-07-17T04:22:04.709Z,16.3
2017-07-17T04:23:06.770Z,16.3
2017-07-17T04:24:08.824Z,16.3
2017-07-17T04:25:10.873Z,16.3
2017-07-17T04:26:12.934Z,16.3
2017-07-17T04:27:14.992Z,16.3
2017-07-17T04:28:17.045Z,16.3
2017-07-17T04:29:19.097Z,16.3
2017-07-17T04:30:21.162Z,16.4
2017-07-17T04:31:23.221Z,16.4
2017-07-17T04:32:25.269Z,16.4
2017-07-17T04:33:27.323Z,16.4
2017-07-17T04:34:29.392Z,16.4
2017-07-17T04:35:31.439Z,16.5
2017-07-17T04:36:33.521Z,16.5
2017-07-17T04:37:35.584Z,16.5
2017-07-17T04:38:37.637Z,16.5
2017-07-17T04:39:39.689Z,16.5
2017-07-17T04:40:41.741Z,16.6
2017-07-17T04:41:43.795Z,16.6
2017-07-17T04:42:45.854Z,16.6
2017-07-17T04:43:47.895Z,16.6
2017-07-17T04:44:49.963Z,16.6
2017-07-17T04:45:52.025Z,16.7
2017-07-17T04:46:54.076Z,16.7
2017-07-17T04:47:56.136Z,16.7
2017-07-17T04:48:58.198Z,16.8
2017-07-17T04:50:00.262Z,16.8
2017-07-17T04:51:03.002Z,16.8
2017-07-17T04:52:05.057Z,16.9
2017-07-17T04:53:07.119Z,16.9
2017-07-17T04:54:09.167Z,16.9
2017-07-17T04:55:11.229Z,17
2017-07-17T04:56:13.288Z,17
2017-07-17T04:57:15.345Z,17
2017-07-17T04:58:17.409Z,17
2017-07-17T04:59:19.463Z,17
2017-07-17T05:00:21.514Z,17
2017-07-17T05:01:23.570Z,17.1
2017-07-17T05:02:25.631Z,17.1
2017-07-17T05:03:27.686Z,17.1
2017-07-17T05:04:29.749Z,17.1
2017-07-17T05:05:31.803Z,17.1
2017-07-17T05:06:33.859Z,17.1
2017-07-17T05:07:35.911Z,17.1
2017-07-17T05:08:38.310Z,17.2
2017-07-17T05:09:40.370Z,17.2
2017-07-17T05:10:42.426Z,17.2
2017-07-17T05:11:44.489Z,17.2
2017-07-17T05:12:46.543Z,17.3
2017-07-17T05:13:48.598Z,17.3
2017-07-17T05:14:50.672Z,17.3
2017-07-17T05:15:52.720Z,17.4
2017-07-17T05:16:54.783Z,17.4
2017-07-17T05:17:56.846Z,17.4
2017-07-17T05:18:58.895Z,17.4
2017-07-17T05:20:03.146Z,17.5
2017-07-17T05:21:05.742Z,17.5
2017-07-17T05:22:07.798Z,17.5
2017-07-17T05:23:09.859Z,17.6
2017-07-17T05:24:11.943Z,17.6
2017-07-17T05:25:14.023Z,17.6
2017-07-17T05:26:16.083Z,17.7
2017-07-17T05:27:18.138Z,17.7
2017-07-17T05:28:20.202Z,17.7
2017-07-17T05:29:22.285Z,17.8
2017-07-17T05:30:24.345Z,17.8
2017-07-17T05:31:26.401Z,17.9
2017-07-17T05:32:28.456Z,17.9
2017-07-17T05:33:30.520Z,17.9
2017-07-17T05:34:32.577Z,17.9
2017-07-17T05:35:34.641Z,17.9
2017-07-17T05:36:36.761Z,18
2017-07-17T05:37:38.831Z,18
2017-07-17T05:38:40.890Z,18
2017-07-17T05:39:42.954Z,18
2017-07-17T05:40:45.004Z,18.1
2017-07-17T05:41:47.067Z,18.1
2017-07-17T05:42:49.125Z,18.1
2017-07-17T05:43:51.187Z,18.2
2017-07-17T05:44:53.248Z,18.2
2017-07-17T05:45:55.304Z,18.3
2017-07-17T05:46:57.364Z,18.3
2017-07-17T05:47:59.417Z,18.3
2017-07-17T05:49:01.473Z,18.4
2017-07-17T05:50:03.547Z,18.5
2017-07-17T05:51:05.596Z,18.5
2017-07-17T05:52:07.651Z,18.5
2017-07-17T05:53:10.067Z,18.6
2017-07-17T05:54:12.127Z,18.6
2017-07-17T05:55:14.187Z,18.6
2017-07-17T05:56:16.242Z,18.6
2017-07-17T05:57:18.312Z,18.7
2017-07-17T05:58:20.370Z,18.7
2017-07-17T05:59:22.422Z,18.7
2017-07-17T06:00:24.481Z,18.7
2017-07-17T06:01:26.534Z,18.7
2017-07-17T06:02:28.591Z,18.8
2017-07-17T06:03:30.662Z,18.8
2017-07-17T06:04:32.709Z,18.8
2017-07-17T06:05:34.773Z,18.8
2017-07-17T06:06:36.824Z,18.9
2017-07-17T06:07:38.884Z,18.9
2017-07-17T06:08:41.311Z,18.9
2017-07-17T06:09:43.373Z,18.9
2017-07-17T06:10:45.434Z,18.9
2017-07-17T06:11:47.497Z,18.9
2017-07-17T06:12:49.553Z,18.9
2017-07-17T06:13:51.619Z,18.9
2017-07-17T06:14:53.672Z,18.9
2017-07-17T06:15:55.724Z,18.9
2017-07-17T06:16:57.785Z,19
2017-07-17T06:17:59.843Z,19
2017-07-17T06:19:01.902Z,19
2017-07-17T06:20:03.966Z,19
2017-07-17T06:21:06.025Z,19.1
2017-07-17T06:22:08.089Z,19.1
2017-07-17T06:23:10.141Z,19.1
2017-07-17T06:24:12.196Z,19.2
2017-07-17T06:25:14.265Z,19.2
2017-07-17T06:26:16.320Z,19.2
2017-07-17T06:27:18.379Z,19.2
2017-07-17T06:28:20.440Z,19.3
2017-07-17T06:29:22.496Z,19.3
2017-07-17T06:30:24.560Z,19.3
2017-07-17T06:31:26.616Z,19.4
2017-07-17T06:32:28.677Z,19.4
2017-07-17T06:33:30.734Z,19.4
2017-07-17T06:34:32.838Z,19.4
2017-07-17T06:35:34.853Z,19.5
2017-07-17T06:36:36.966Z,19.5
2017-07-17T06:37:39.044Z,19.6
2017-07-17T06:38:41.100Z,19.5
2017-07-17T06:39:43.156Z,19.6
2017-07-17T06:40:45.219Z,19.6
2017-07-17T06:41:47.277Z,19.6
2017-07-17T06:42:49.344Z,19.7
2017-07-17T06:43:51.747Z,19.7
2017-07-17T06:44:53.810Z,19.7
2017-07-17T06:45:55.875Z,19.7
2017-07-17T06:46:57.928Z,19.8
2017-07-17T06:47:59.989Z,19.8
2017-07-17T06:49:02.410Z,19.9
2017-07-17T06:50:04.466Z,19.9
2017-07-17T06:51:06.520Z,20
2017-07-17T06:52:08.582Z,20.1
2017-07-17T06:53:10.640Z,20
2017-07-17T06:54:12.696Z,20.1
2017-07-17T06:55:14.753Z,20.1
2017-07-17T06:56:16.809Z,20.1
2017-07-17T06:57:18.869Z,20.2
2017-07-17T06:58:20.942Z,20.2
2017-07-17T06:59:23.005Z,20.3
2017-07-17T07:00:25.068Z,20.4
2017-07-17T07:01:27.125Z,20.4
2017-07-17T07:02:29.187Z,20.5
2017-07-17T07:03:31.254Z,20.5
2017-07-17T07:04:33.312Z,20.5
2017-07-17T07:05:35.385Z,20.5
2017-07-17T07:06:37.444Z,20.6
2017-07-17T07:07:39.502Z,20.5
2017-07-17T07:08:41.565Z,20.6
2017-07-17T07:09:43.624Z,20.6
2017-07-17T07:10:45.692Z,20.6
2017-07-17T07:11:47.754Z,20.7
2017-07-17T07:12:49.814Z,20.7
2017-07-17T07:13:51.874Z,20.8
2017-07-17T07:14:53.939Z,20.8
2017-07-17T07:15:56.000Z,20.8
2017-07-17T07:16:58.055Z,20.8
2017-07-17T07:18:00.121Z,20.8
2017-07-17T07:19:02.184Z,20.8
2017-07-17T07:20:04.236Z,20.8
2017-07-17T07:21:06.305Z,20.9
2017-07-17T07:22:08.369Z,20.9
2017-07-17T07:23:10.433Z,20.9
2017-07-17T07:24:12.495Z,20.9
2017-07-17T07:25:14.564Z,21
2017-07-17T07:26:16.625Z,21
2017-07-17T07:27:18.677Z,21
2017-07-17T07:28:20.739Z,21
2017-07-17T07:29:22.812Z,21.1
2017-07-17T07:30:24.883Z,21.1
2017-07-17T07:31:26.945Z,21.2
2017-07-17T07:32:29.009Z,21.2
2017-07-17T07:33:31.073Z,21.3
2017-07-17T07:34:33.142Z,21.4
2017-07-17T07:35:35.209Z,21.5
2017-07-17T07:36:37.310Z,21.6
2017-07-17T07:37:39.375Z,21.6
2017-07-17T07:38:41.447Z,21.6
2017-07-17T07:39:43.502Z,21.7
2017-07-17T07:40:45.566Z,21.7
2017-07-17T07:41:47.632Z,21.7
2017-07-17T07:42:49.696Z,21.8
2017-07-17T07:43:51.761Z,21.8
2017-07-17T07:44:53.818Z,21.8
2017-07-17T07:45:55.894Z,21.9
2017-07-17T07:46:57.957Z,21.9
2017-07-17T07:48:00.010Z,21.9
2017-07-17T07:49:02.081Z,22
2017-07-17T07:50:04.154Z,22
2017-07-17T07:51:06.206Z,22.1
2017-07-17T07:52:08.274Z,22.2
2017-07-17T07:53:10.342Z,22.3
2017-07-17T07:54:12.411Z,22.3
2017-07-17T07:55:14.467Z,22.4
2017-07-17T07:56:16.529Z,22.4
2017-07-17T07:57:18.590Z,22.3
2017-07-17T07:58:20.657Z,22.3
2017-07-17T07:59:22.718Z,22.2
2017-07-17T08:00:24.786Z,22.2
2017-07-17T08:01:26.847Z,22.2
2017-07-17T08:02:28.906Z,22.1
2017-07-17T08:03:30.968Z,22.1
2017-07-17T08:04:33.035Z,22.1
2017-07-17T08:05:35.100Z,22.2
2017-07-17T08:06:37.168Z,22.2
2017-07-17T08:07:39.226Z,22.2
2017-07-17T08:08:41.298Z,22.3
2017-07-17T08:09:43.359Z,22.3
2017-07-17T08:10:45.427Z,22.3
2017-07-17T08:11:47.502Z,22.3
2017-07-17T08:12:49.563Z,22.3
2017-07-17T08:13:51.628Z,22.3
2017-07-17T08:14:53.695Z,22.3
2017-07-17T08:15:55.760Z,22.3
2017-07-17T08:16:57.824Z,22.3
2017-07-17T08:17:59.936Z,22.3
2017-07-17T08:19:01.957Z,22.3
2017-07-17T08:20:04.023Z,22.3
2017-07-17T08:21:06.079Z,22.3
2017-07-17T08:22:08.144Z,22.3
2017-07-17T08:23:10.202Z,22.3
2017-07-17T08:24:12.633Z,22.3
2017-07-17T08:25:14.699Z,22.3
2017-07-17T08:26:16.760Z,22.3
2017-07-17T08:27:18.821Z,22.3
2017-07-17T08:28:20.888Z,22.4
2017-07-17T08:29:22.953Z,22.4
2017-07-17T08:30:25.017Z,22.3
2017-07-17T08:31:27.087Z,22.3
2017-07-17T08:32:29.151Z,22.3
2017-07-17T08:33:31.210Z,22.3
2017-07-17T08:34:33.280Z,22.3
2017-07-17T08:35:35.350Z,22.3
2017-07-17T08:36:37.484Z,22.3
2017-07-17T08:37:39.549Z,22.4
2017-07-17T08:38:41.618Z,22.4
2017-07-17T08:39:43.691Z,22.5
2017-07-17T08:40:45.744Z,22.6
2017-07-17T08:41:47.809Z,22.6
2017-07-17T08:42:49.889Z,22.7
2017-07-17T08:43:51.945Z,22.8
2017-07-17T08:44:54.010Z,22.8
2017-07-17T08:45:56.069Z,22.9
2017-07-17T08:46:58.142Z,22.9
2017-07-17T08:48:00.208Z,22.9
2017-07-17T08:49:02.281Z,22.9
2017-07-17T08:50:04.680Z,22.8
2017-07-17T08:51:06.745Z,22.8
2017-07-17T08:52:08.821Z,22.8
2017-07-17T08:53:11.237Z,22.7
2017-07-17T08:54:13.296Z,22.7
2017-07-17T08:55:15.364Z,22.7
2017-07-17T08:56:17.427Z,22.6
2017-07-17T08:57:19.489Z,22.6
2017-07-17T08:58:21.550Z,22.6
2017-07-17T08:59:23.624Z,22.6
2017-07-17T09:00:26.036Z,22.6
2017-07-17T09:01:28.104Z,22.6
2017-07-17T09:02:30.162Z,22.6
2017-07-17T09:03:32.238Z,22.7
2017-07-17T09:04:34.298Z,22.8
2017-07-17T09:05:36.358Z,22.9
2017-07-17T09:06:38.432Z,23
2017-07-17T09:07:40.499Z,23.1
2017-07-17T09:08:42.554Z,23.2
2017-07-17T09:09:44.624Z,23.3
2017-07-17T09:10:46.695Z,23.3
2017-07-17T09:11:48.755Z,23.4
2017-07-17T09:12:50.820Z,23.5
2017-07-17T09:13:52.882Z,23.5
2017-07-17T09:14:54.956Z,23.6
2017-07-17T09:15:57.012Z,23.6
2017-07-17T09:16:59.081Z,23.7
2017-07-17T09:18:01.150Z,23.8
2017-07-17T09:19:03.220Z,23.9
2017-07-17T09:20:05.293Z,23.9
2017-07-17T09:21:07.359Z,24.1
2017-07-17T09:22:09.427Z,24.2
2017-07-17T09:23:11.510Z,24.3
2017-07-17T09:24:13.570Z,24.5
2017-07-17T09:25:15.628Z,24.5
2017-07-17T09:26:17.712Z,24.5
2017-07-17T09:27:20.154Z,24.5
2017-07-17T09:28:22.218Z,24.6
2017-07-17T09:29:24.284Z,24.6
2017-07-17T09:30:26.355Z,24.7
2017-07-17T09:31:28.766Z,24.7
2017-07-17T09:32:30.835Z,24.8
2017-07-17T09:33:32.908Z,24.8
2017-07-17T09:34:34.967Z,24.9
2017-07-17T09:35:37.026Z,25
2017-07-17T09:36:39.119Z,25.1
2017-07-17T09:37:41.191Z,25.3
2017-07-17T09:38:43.262Z,25.4
2017-07-17T09:39:45.336Z,25.5
2017-07-17T09:40:47.408Z,25.6
2017-07-17T09:41:49.474Z,25.7
2017-07-17T09:42:51.546Z,25.8
2017-07-17T09:43:53.610Z,25.8
2017-07-17T09:44:55.686Z,26
2017-07-17T09:45:57.754Z,26.1
2017-07-17T09:46:59.816Z,26.2
2017-07-17T09:48:01.889Z,26.3
2017-07-17T09:49:03.948Z,26.3
2017-07-17T09:50:06.023Z,26.3
2017-07-17T09:51:08.094Z,26.3
2017-07-17T09:52:10.163Z,26.2
2017-07-17T09:53:12.228Z,26.1
2017-07-17T09:54:14.304Z,26.1
2017-07-17T09:55:16.372Z,26.1
2017-07-17T09:56:18.444Z,26
2017-07-17T09:57:20.516Z,26.1
2017-07-17T09:58:22.597Z,26.2
2017-07-17T09:59:24.662Z,26.3
2017-07-17T10:00:26.738Z,26.4
2017-07-17T10:01:28.803Z,26.5
2017-07-17T10:02:30.873Z,26.7
2017-07-17T10:03:32.939Z,26.9
2017-07-17T10:04:35.013Z,27.1
2017-07-17T10:05:37.079Z,27.3
2017-07-17T10:06:39.145Z,27.3
2017-07-17T10:07:41.574Z,27.2
2017-07-17T10:08:43.640Z,27.1
2017-07-17T10:09:45.705Z,27
2017-07-17T10:10:47.775Z,26.8
2017-07-17T10:11:49.843Z,26.6
2017-07-17T10:12:51.912Z,26.4
2017-07-17T10:13:53.984Z,26.3
2017-07-17T10:14:56.060Z,26.2
2017-07-17T10:15:58.132Z,26.1
2017-07-17T10:17:00.193Z,26.3
2017-07-17T10:18:02.262Z,26.4
2017-07-17T10:19:04.333Z,26.6
2017-07-17T10:20:06.409Z,26.8
2017-07-17T10:21:08.480Z,27
2017-07-17T10:22:10.552Z,27.2
2017-07-17T10:23:12.734Z,27.4
2017-07-17T10:24:14.968Z,27.5
2017-07-17T10:25:17.035Z,27.7
2017-07-17T10:26:19.106Z,27.8
2017-07-17T10:27:21.185Z,27.9
2017-07-17T10:28:23.258Z,27.9
2017-07-17T10:29:25.322Z,27.8
2017-07-17T10:30:27.397Z,27.7
2017-07-17T10:31:29.475Z,27.6
2017-07-17T10:32:31.550Z,27.5
2017-07-17T10:33:33.617Z,27.3
2017-07-17T10:34:35.699Z,27.2
2017-07-17T10:35:37.775Z,27.1
2017-07-17T10:36:39.841Z,27
2017-07-17T10:37:41.916Z,27
2017-07-17T10:38:44.002Z,27.1
2017-07-17T10:39:46.067Z,27.3
2017-07-17T10:40:48.130Z,27.5
2017-07-17T10:41:50.206Z,27.7
2017-07-17T10:42:52.276Z,27.7
2017-07-17T10:43:54.347Z,27.7
2017-07-17T10:44:56.415Z,27.6
2017-07-17T10:45:58.483Z,27.5
2017-07-17T10:47:00.562Z,27.4
2017-07-17T10:48:02.629Z,27.3
2017-07-17T10:49:04.695Z,27.2
2017-07-17T10:50:06.777Z,27.2
2017-07-17T10:51:08.844Z,27.2
2017-07-17T10:52:10.916Z,27.1
2017-07-17T10:53:12.989Z,27.1
2017-07-17T10:54:15.403Z,27.1
2017-07-17T10:55:17.480Z,27.2
2017-07-17T10:56:19.545Z,27.3
2017-07-17T10:57:21.619Z,27.4
2017-07-17T10:58:23.688Z,27.6
2017-07-17T10:59:25.766Z,27.7
2017-07-17T11:00:27.834Z,27.9
2017-07-17T11:01:29.902Z,28.1
2017-07-17T11:02:31.983Z,28.2
2017-07-17T11:03:34.055Z,28.4
2017-07-17T11:04:36.278Z,28.5
2017-07-17T11:05:38.378Z,28.6
2017-07-17T11:06:40.448Z,28.6
2017-07-17T11:07:42.524Z,28.4
2017-07-17T11:08:44.595Z,28.4
2017-07-17T11:09:46.672Z,28.3
2017-07-17T11:10:48.743Z,28.3
2017-07-17T11:11:50.806Z,28.3
2017-07-17T11:12:52.887Z,28.3
2017-07-17T11:13:55.012Z,28.4
2017-07-17T11:14:57.086Z,28.5
2017-07-17T11:15:59.151Z,28.6
2017-07-17T11:17:01.350Z,28.6
2017-07-17T11:18:03.738Z,28.7
2017-07-17T11:19:06.040Z,28.7
2017-07-17T11:20:08.353Z,28.6
2017-07-17T11:21:11.023Z,28.5
2017-07-17T11:22:13.414Z,28.4
2017-07-17T11:23:15.747Z,28.3
2017-07-17T11:24:18.136Z,28.2
2017-07-17T11:25:20.631Z,28.1
2017-07-17T11:26:23.024Z,28
2017-07-17T11:27:25.467Z,27.9
2017-07-17T11:28:27.932Z,27.8
2017-07-17T11:29:30.363Z,27.8
2017-07-17T11:30:32.888Z,27.9
2017-07-17T11:31:35.366Z,27.9
2017-07-17T11:32:37.910Z,28.1
2017-07-17T11:33:40.427Z,28.1
2017-07-17T11:34:42.894Z,28.1
2017-07-17T11:35:45.382Z,28.2
2017-07-17T11:36:47.786Z,28.3
2017-07-17T11:37:50.334Z,28.4
2017-07-17T11:38:52.838Z,28.5
2017-07-17T11:39:55.322Z,28.6
2017-07-17T11:40:57.718Z,28.7
2017-07-17T11:42:00.185Z,28.8
2017-07-17T11:43:02.690Z,28.9
2017-07-17T11:44:05.061Z,29
2017-07-17T11:45:07.843Z,29.1
2017-07-17T11:56:45.740Z,28.6
2017-07-17T11:58:50.197Z,28.7
2017-07-17T11:59:52.311Z,28.8
2017-07-17T12:00:54.377Z,28.9
2017-07-17T12:01:56.457Z,29.1
2017-07-17T12:02:58.535Z,29.2
2017-07-17T12:04:00.610Z,29.3
2017-07-17T12:06:04.719Z,29.4
2017-07-17T12:07:06.800Z,29.5
2017-07-17T12:08:09.226Z,29.5
2017-07-17T12:09:11.298Z,29.5
2017-07-17T12:10:13.376Z,29.5
2017-07-17T12:11:15.454Z,29.6
2017-07-17T12:12:17.518Z,29.6
2017-07-17T12:13:19.605Z,29.6
2017-07-17T12:14:21.676Z,29.4
2017-07-17T12:15:23.751Z,29.4
2017-07-17T12:16:25.823Z,29.3
2017-07-17T12:17:27.890Z,29.2
2017-07-17T12:18:29.984Z,29.1
2017-07-17T12:19:32.404Z,29
2017-07-17T12:20:34.472Z,28.9
2017-07-17T12:21:36.547Z,28.9
2017-07-17T12:22:38.623Z,29
2017-07-17T12:23:40.687Z,29
2017-07-17T12:24:42.763Z,29
2017-07-17T12:25:44.840Z,29.2
2017-07-17T12:26:46.920Z,29.2
2017-07-17T12:27:48.991Z,29.2
2017-07-17T12:28:51.064Z,29.2
2017-07-17T12:29:53.134Z,29.1
2017-07-17T12:30:55.215Z,29
2017-07-17T12:31:57.623Z,28.9
2017-07-17T12:32:59.706Z,28.9
2017-07-17T12:34:01.783Z,28.9
2017-07-17T12:35:03.852Z,28.8
2017-07-17T12:36:05.928Z,28.9
2017-07-17T12:37:08.008Z,28.9
2017-07-17T12:38:10.083Z,28.9
2017-07-17T12:39:12.161Z,29
2017-07-17T12:40:14.231Z,29
2017-07-17T12:41:16.311Z,29.2
2017-07-17T12:42:18.392Z,29.3
2017-07-17T12:43:20.480Z,29.5
2017-07-17T12:44:22.553Z,29.7
2017-07-17T12:45:24.630Z,29.9
2017-07-17T12:46:26.712Z,30
2017-07-17T12:47:28.788Z,30.1
2017-07-17T12:48:30.864Z,30.2
2017-07-17T12:49:32.932Z,30.2
2017-07-17T12:50:35.014Z,30.2
2017-07-17T12:51:37.101Z,30.1
2017-07-17T12:52:39.172Z,30.1
2017-07-17T12:53:41.593Z,30.1
2017-07-17T12:54:43.660Z,30
2017-07-17T12:55:45.736Z,29.8
2017-07-17T12:56:47.808Z,29.7
2017-07-17T12:57:49.879Z,29.5
2017-07-17T12:58:51.961Z,29.4
2017-07-17T12:59:54.034Z,29.3
2017-07-17T13:00:56.108Z,29.2
2017-07-17T13:01:58.183Z,29.1
2017-07-17T13:03:00.262Z,29
2017-07-17T13:04:02.341Z,28.9
2017-07-17T13:05:04.411Z,28.9
2017-07-17T13:06:06.495Z,28.8
2017-07-17T13:07:08.924Z,28.9
2017-07-17T13:08:10.990Z,28.9
2017-07-17T13:09:13.413Z,28.9
2017-07-17T13:10:16.185Z,29
2017-07-17T13:11:18.261Z,29
2017-07-17T13:12:20.333Z,29
2017-07-17T13:13:22.413Z,28.9
2017-07-17T13:14:24.487Z,28.9
2017-07-17T13:15:26.554Z,28.8
2017-07-17T13:16:28.632Z,28.8
2017-07-17T13:17:30.706Z,28.7
2017-07-17T13:18:32.776Z,28.7
2017-07-17T13:19:34.868Z,28.6
2017-07-17T13:20:36.936Z,28.5
2017-07-17T13:21:39.014Z,28.5
2017-07-17T13:22:41.082Z,28.4
2017-07-17T13:23:43.155Z,28.4
2017-07-17T13:24:45.234Z,28.3
2017-07-17T13:25:47.311Z,28.2
2017-07-17T13:26:49.375Z,28.2
2017-07-17T13:27:51.462Z,28.1
2017-07-17T13:28:53.535Z,28
2017-07-17T13:29:55.601Z,28
2017-07-17T13:30:57.666Z,27.9
2017-07-17T13:31:59.745Z,27.9
2017-07-17T13:33:02.180Z,27.8
2017-07-17T13:34:04.605Z,27.7
2017-07-17T13:35:06.678Z,27.7
2017-07-17T13:36:08.757Z,27.6
2017-07-17T13:37:10.828Z,27.6
2017-07-17T13:38:12.896Z,27.5
2017-07-17T13:39:14.975Z,27.4
2017-07-17T13:40:17.054Z,27.3
2017-07-17T13:41:19.117Z,27.2
2017-07-17T13:42:21.189Z,27.1
2017-07-17T13:43:23.264Z,27
2017-07-17T13:44:25.329Z,26.9
2017-07-17T13:45:27.404Z,26.8
2017-07-17T13:46:29.476Z,26.7
2017-07-17T13:49:33.753Z,26.7
2017-07-17T13:50:35.830Z,26.6
2017-07-17T13:51:37.904Z,26.5
2017-07-17T13:52:39.966Z,26.5
2017-07-17T13:53:42.403Z,26.5
2017-07-17T13:54:44.875Z,26.4
2017-07-17T13:55:46.987Z,26.4
2017-07-17T13:56:49.086Z,26.3
2017-07-17T13:57:51.543Z,26.4
2017-07-17T13:58:54.327Z,26.3
2017-07-17T13:59:56.460Z,26.3
2017-07-17T14:00:58.569Z,26.3
2017-07-17T14:02:01.035Z,26.3
2017-07-17T14:03:03.175Z,26.3
2017-07-17T14:04:05.622Z,26.3
2017-07-17T14:05:08.812Z,26.3
2017-07-17T14:06:10.967Z,26.2
2017-07-17T14:07:13.754Z,26.2